Groveville, New Jersey
Current Conditions -  °F | °C
As of 9:58 PM on Saturday 25 Oct 2014 (Local Time) from KWRI Reporting Station
Scattered Clouds Scattered Clouds  
Wind Chill: 58°   Ceiling: Unl
Heat Index: 58°   Visibility: 10mi
Dew Point: 44°   Wind: 12mph
Humidity: 60%   Direction: 230°SW
Pressure: 29.64"   Gusts: NA
Location:  40.1542°N, 74.6404°W
Report Text: KWRI 260158Z AUTO 23010KT 10SM SCT070 14/07 A2964 RMK AO2 SLP040 T01440068 $
Loading
Personal Weather Stations






























Interactive Weather Map
Tropical Storm Tracking
New forecast layout! Learn more

10-Day Weather Forecast

Advertisements
Track Severe Weather on mobile